Airfield :







YOU CAN JOIN US ON...

 
LOGIN :

Register | Disclaimer

   EN    FR    IT 

 









Legend :    VFR   Marginal VFR   IFR   Intensive IFR   Very Intensive IFR
Visi :
Ceiling :
>= 8 km
>= 3000ft
5 to 8 km
1000 to 3000 ft
1500m to 5 km
500 to 1000 ft
800 to 1500m
200 to 500 ft
< 800m
< 200 ft
Symbols :   Thunderstorms  Fog  Heavy snow  Heavy precipitations  Wind > 20 kt






- Airport Elevation : 92 ft
- IATA code : YZX


CYZX - CFB Greenwood

CURRENT METAR :
  • 171900Z 29007KT 15SM FEW250 19/05 A3022 RMK CI2 CB OBS DIST N AND DIST S SLP235

EXPIRED METARs :
  • 171800Z 32005G15KT 15SM FEW016CB 19/05 A3024 RMK CB2 CB 20SM SE MOVG SE SLP240
  • 171700Z 30008KT 15SM FEW014CB 19/07 A3025 RMK CB2 LTNG DTCTRS REP STRIKES 20 SM SE QUAD CB 20SM SE MOVG SW SLP244

TAF AMD TAF CYZX
Valid from the 17 at 19:00 until the 18 at 18:00 UTC


171909Z 1719/1818 30008KT P6SM FEW250
BECMG 1722/1724 VRB03KT
FM180600 VRB03KT P6SM SCT060 BKN140
BECMG 1813/1815 23010KT
FM181600 26012G22KT P6SM -SHRA BKN050 OVC140
PROB30 1817/1818 P6SM -TSRA BKN050CB RMK NXT FCST BY 180000Z
CZQM FIR / North America



MET'MAP, your aeronautical weather chart ! - Copyright ORBIFLY December 2007 - Disclaimer

ORBIFLY MET'MAP TEAM :

Programming & Development : Alexandra Zaïnal
Concept & original design : Baudouin d'Aumeries
Assistance for programming : Marc-Olivier Méhu
Technical & hardware support : Manuel Goepfert

Contact : metmap@orbifly.com




SOURCES & CREDITS :

   NOAA